createdAt,value
2023-11-12T00:00:04.422Z,73.20
2023-11-12T00:02:31.399Z,73.70
2023-11-12T00:04:58.236Z,73.30
2023-11-12T00:07:24.998Z,73.30
2023-11-12T00:09:51.887Z,73.50
2023-11-12T00:12:20.568Z,73.40
2023-11-12T00:14:47.581Z,73.60
2023-11-12T00:17:15.038Z,74.30
2023-11-12T00:19:42.177Z,74.30
2023-11-12T00:22:10.525Z,73.70
2023-11-12T00:24:37.324Z,73.70
2023-11-12T00:27:04.133Z,73.50
2023-11-12T00:29:31.025Z,73.80
2023-11-12T00:31:58.287Z,73.60
2023-11-12T00:34:25.066Z,73.70
2023-11-12T00:36:52.331Z,73.60
2023-11-12T00:39:19.177Z,73.70
2023-11-12T00:41:45.945Z,73.80
2023-11-12T00:44:12.861Z,74.00
2023-11-12T00:46:41.897Z,74.10
2023-11-12T00:49:09.122Z,74.10
2023-11-12T00:51:36.968Z,74.20
2023-11-12T00:54:03.991Z,74.30
2023-11-12T00:56:31.133Z,74.30
2023-11-12T00:58:58.006Z,74.20
2023-11-12T01:01:25.067Z,74.30
2023-11-12T01:03:52.002Z,74.30
2023-11-12T01:06:18.845Z,74.20
2023-11-12T01:08:46.968Z,74.20
2023-11-12T01:11:14.521Z,74.10
2023-11-12T01:13:41.565Z,74.00
2023-11-12T01:16:10.134Z,74.40
2023-11-12T01:18:41.412Z,75.20
2023-11-12T01:21:08.418Z,74.50
2023-11-12T01:23:35.531Z,74.50
2023-11-12T01:26:02.317Z,74.20
2023-11-12T01:28:33.759Z,74.10
2023-11-12T01:31:01.545Z,73.90
2023-11-12T01:33:29.183Z,74.10
2023-11-12T01:35:56.714Z,74.40
2023-11-12T01:38:23.484Z,74.70
2023-11-12T01:40:50.334Z,74.00
2023-11-12T01:43:17.626Z,74.00
2023-11-12T01:45:44.782Z,74.50
2023-11-12T01:48:15.257Z,74.00
2023-11-12T01:50:43.904Z,75.40
2023-11-12T01:53:14.400Z,75.10
2023-11-12T01:55:42.003Z,75.00
2023-11-12T01:58:10.780Z,74.10
2023-11-12T02:00:41.099Z,74.20
2023-11-12T02:03:10.755Z,74.50
2023-11-12T02:05:37.663Z,74.80
2023-11-12T02:08:06.284Z,74.10
2023-11-12T02:10:37.184Z,74.40
2023-11-12T02:13:07.951Z,74.40
2023-11-12T02:15:35.897Z,75.50
2023-11-12T02:18:03.036Z,75.00
2023-11-12T02:20:29.856Z,74.60
2023-11-12T02:22:56.886Z,74.60
2023-11-12T02:25:23.830Z,74.70
2023-11-12T02:27:50.741Z,74.60
2023-11-12T02:30:20.174Z,74.90
2023-11-12T02:32:48.365Z,74.70
2023-11-12T02:35:15.605Z,74.70
2023-11-12T02:37:42.618Z,74.70
2023-11-12T02:40:10.028Z,74.90
2023-11-12T02:42:38.374Z,75.10
2023-11-12T02:45:06.584Z,75.30
2023-11-12T02:47:33.396Z,75.40
2023-11-12T02:50:05.136Z,74.80
2023-11-12T02:52:32.512Z,76.60
2023-11-12T02:55:00.023Z,75.00
2023-11-12T02:57:28.398Z,75.10
2023-11-12T02:59:56.672Z,75.60
2023-11-12T03:02:23.524Z,75.70
2023-11-12T03:04:52.113Z,74.90
2023-11-12T03:07:19.951Z,75.60
2023-11-12T03:09:48.166Z,75.20
2023-11-12T03:12:15.500Z,75.50
2023-11-12T03:14:43.381Z,75.30
2023-11-12T03:17:10.151Z,76.00
2023-11-12T03:19:38.733Z,75.00
2023-11-12T03:22:06.621Z,75.10
2023-11-12T03:24:35.858Z,75.30
2023-11-12T03:27:02.605Z,75.40
2023-11-12T03:29:29.560Z,75.40
2023-11-12T03:31:56.319Z,75.30
2023-11-12T03:34:25.981Z,75.20
2023-11-12T03:36:53.189Z,75.20
2023-11-12T03:39:20.074Z,75.30
2023-11-12T03:41:47.142Z,75.30
2023-11-12T03:44:13.900Z,75.30
2023-11-12T03:46:40.931Z,75.10
2023-11-12T03:49:08.552Z,75.00
2023-11-12T03:51:35.487Z,75.50
2023-11-12T03:54:03.313Z,75.50
2023-11-12T03:56:30.833Z,75.40
2023-11-12T03:58:58.334Z,75.80
2023-11-12T04:01:25.988Z,76.90
2023-11-12T04:03:53.475Z,76.20
2023-11-12T04:06:21.223Z,75.90
2023-11-12T04:08:48.114Z,76.00
2023-11-12T04:11:14.986Z,75.40
2023-11-12T04:13:41.809Z,75.10
2023-11-12T04:16:09.918Z,75.10
2023-11-12T04:18:37.670Z,75.10
2023-11-12T04:21:08.060Z,75.20
2023-11-12T04:23:34.872Z,75.50
2023-11-12T04:26:02.837Z,74.90
2023-11-12T04:28:30.286Z,74.90
2023-11-12T04:30:58.266Z,75.10
2023-11-12T04:33:25.230Z,75.00
2023-11-12T04:35:53.556Z,74.90
2023-11-12T04:38:21.590Z,75.00
2023-11-12T04:40:51.284Z,75.00
2023-11-12T04:43:18.064Z,74.90
2023-11-12T04:45:45.438Z,75.10
2023-11-12T04:48:12.812Z,75.50
2023-11-12T04:50:39.901Z,75.50
2023-11-12T04:53:07.368Z,75.70
2023-11-12T04:55:35.166Z,75.70
2023-11-12T04:58:08.495Z,75.90
2023-11-12T05:00:35.346Z,75.30
2023-11-12T05:03:05.700Z,75.70
2023-11-12T05:05:33.267Z,75.60
2023-11-12T05:08:00.255Z,75.70
2023-11-12T05:10:44.185Z,75.50
2023-11-12T05:13:13.498Z,75.40
2023-11-12T05:15:40.346Z,75.40
2023-11-12T05:18:07.934Z,75.20
2023-11-12T05:20:35.142Z,75.10
2023-11-12T05:23:02.759Z,75.10
2023-11-12T05:25:30.654Z,75.90
2023-11-12T05:27:57.431Z,75.70
2023-11-12T05:30:24.467Z,75.10
2023-11-12T05:32:52.205Z,75.30
2023-11-12T05:35:19.945Z,75.60
2023-11-12T05:37:48.746Z,75.70
2023-11-12T05:40:16.038Z,75.60
2023-11-12T05:42:43.584Z,75.30
2023-11-12T05:45:10.655Z,75.40
2023-11-12T05:47:37.634Z,75.30
2023-11-12T05:50:05.013Z,75.20
2023-11-12T05:52:31.864Z,75.70
2023-11-12T05:54:58.785Z,75.30
2023-11-12T05:57:25.587Z,75.10
2023-11-12T05:59:52.362Z,75.10
2023-11-12T06:02:19.913Z,75.10
2023-11-12T06:04:46.626Z,75.20
2023-11-12T06:07:13.472Z,75.00
2023-11-12T06:09:40.344Z,75.10
2023-11-12T06:12:08.984Z,75.00
2023-11-12T06:14:37.575Z,75.90
2023-11-12T06:17:05.555Z,74.80
2023-11-12T06:19:32.396Z,75.10
2023-11-12T06:22:01.211Z,74.90
2023-11-12T06:24:28.178Z,75.00
2023-11-12T06:26:54.987Z,75.30
2023-11-12T06:29:21.830Z,75.30
2023-11-12T06:31:48.559Z,75.30
2023-11-12T06:34:15.349Z,75.40
2023-11-12T06:36:42.328Z,75.30
2023-11-12T06:39:09.081Z,75.40
2023-11-12T06:41:35.829Z,75.40
2023-11-12T06:44:02.717Z,75.40
2023-11-12T06:46:29.567Z,75.30
2023-11-12T06:48:56.312Z,75.20
2023-11-12T06:51:27.488Z,75.20
2023-11-12T06:53:54.197Z,75.60
2023-11-12T06:56:21.772Z,75.30
2023-11-12T06:58:49.536Z,75.40
2023-11-12T07:01:16.337Z,75.30
2023-11-12T07:03:43.729Z,75.40
2023-11-12T07:06:10.573Z,75.40
2023-11-12T07:08:37.301Z,75.40
2023-11-12T07:11:05.003Z,75.50
2023-11-12T07:13:31.747Z,75.60
2023-11-12T07:15:58.696Z,75.70
2023-11-12T07:18:25.622Z,75.40
2023-11-12T07:20:52.521Z,75.30
2023-11-12T07:23:19.410Z,75.30
2023-11-12T07:25:46.592Z,75.30
2023-11-12T07:28:13.377Z,75.10
2023-11-12T07:30:40.226Z,75.20
2023-11-12T07:33:07.370Z,75.20
2023-11-12T07:35:34.551Z,75.40
2023-11-12T07:38:02.116Z,75.60
2023-11-12T07:40:29.024Z,75.40
2023-11-12T07:42:57.759Z,75.10
2023-11-12T07:45:31.575Z,75.10
2023-11-12T07:48:01.951Z,75.10
2023-11-12T07:50:29.612Z,75.20
2023-11-12T07:52:56.495Z,75.00
2023-11-12T07:55:23.933Z,75.10
2023-11-12T07:57:50.702Z,74.90
2023-11-12T08:00:18.035Z,74.90
2023-11-12T08:02:46.808Z,75.20
2023-11-12T08:05:13.862Z,75.10
2023-11-12T08:07:41.580Z,75.70
2023-11-12T08:10:09.681Z,75.20
2023-11-12T08:12:37.845Z,75.50
2023-11-12T08:15:06.471Z,75.00
2023-11-12T08:17:33.647Z,75.70
2023-11-12T08:20:00.489Z,75.40
2023-11-12T08:22:27.910Z,74.50
2023-11-12T08:24:56.003Z,74.60
2023-11-12T08:27:23.948Z,74.40
2023-11-12T08:29:53.946Z,74.60
2023-11-12T08:32:20.702Z,76.50
2023-11-12T08:34:47.531Z,74.50
2023-11-12T08:37:14.533Z,74.40
2023-11-12T08:39:41.980Z,74.40
2023-11-12T08:42:08.932Z,74.30
2023-11-12T08:44:35.740Z,74.20
2023-11-12T08:47:03.112Z,74.30
2023-11-12T08:49:33.276Z,74.30
2023-11-12T08:52:00.515Z,74.10
2023-11-12T08:54:27.383Z,74.50
2023-11-12T08:56:54.543Z,74.00
2023-11-12T08:59:21.856Z,73.40
2023-11-12T09:01:48.624Z,73.60
2023-11-12T09:04:15.486Z,73.10
2023-11-12T09:06:42.313Z,73.00
2023-11-12T09:09:10.196Z,72.90
2023-11-12T09:11:37.762Z,72.90
2023-11-12T09:14:06.879Z,73.00
2023-11-12T09:16:34.768Z,73.10
2023-11-12T09:19:01.798Z,73.50
2023-11-12T09:21:32.360Z,72.50
2023-11-12T09:23:59.778Z,74.00
2023-11-12T09:26:26.615Z,72.80
2023-11-12T09:28:53.369Z,72.60
2023-11-12T09:31:20.800Z,72.50
2023-11-12T09:33:48.286Z,73.10
2023-11-12T09:36:15.889Z,73.20
2023-11-12T09:38:42.956Z,73.20
2023-11-12T09:41:13.623Z,73.90
2023-11-12T09:43:40.614Z,75.30
2023-11-12T09:46:10.687Z,73.70
2023-11-12T09:48:43.520Z,73.40
2023-11-12T09:51:13.448Z,74.70
2023-11-12T09:53:42.241Z,73.70
2023-11-12T09:56:10.522Z,75.10
2023-11-12T09:58:38.989Z,73.80
2023-11-12T10:01:08.992Z,73.80
2023-11-12T10:03:37.000Z,73.30
2023-11-12T10:06:07.499Z,73.20
2023-11-12T10:08:37.405Z,74.00
2023-11-12T10:11:24.631Z,73.60
2023-11-12T10:13:52.916Z,73.60
2023-11-12T10:16:30.250Z,72.00
2023-11-12T10:19:17.410Z,73.20
2023-11-12T10:21:58.128Z,73.30
2023-11-12T10:24:29.727Z,73.40
2023-11-12T10:27:08.977Z,71.30
2023-11-12T10:29:35.762Z,73.00
2023-11-12T10:32:02.621Z,71.50
2023-11-12T10:34:29.565Z,71.50
2023-11-12T10:37:02.054Z,71.70
2023-11-12T10:39:36.839Z,74.00
2023-11-12T10:42:04.046Z,74.30
2023-11-12T10:44:34.684Z,72.70
2023-11-12T10:47:05.672Z,74.10
2023-11-12T10:49:35.109Z,74.20
2023-11-12T10:52:04.378Z,73.50
2023-11-12T10:54:33.685Z,74.20
2023-11-12T10:57:01.786Z,73.90
2023-11-12T10:59:32.268Z,73.30
2023-11-12T11:02:00.558Z,73.60
2023-11-12T11:04:30.298Z,73.00
2023-11-12T11:06:57.180Z,71.60
2023-11-12T11:09:24.177Z,71.80
2023-11-12T11:11:51.424Z,71.60
2023-11-12T11:14:30.492Z,71.70
2023-11-12T11:16:58.803Z,73.10
2023-11-12T11:19:55.135Z,71.30
2023-11-12T11:22:35.218Z,72.90
2023-11-12T11:25:26.436Z,72.50
2023-11-12T11:28:18.581Z,71.70
2023-11-12T11:31:11.117Z,71.40
2023-11-12T11:33:48.914Z,71.00
2023-11-12T11:36:21.765Z,70.90
2023-11-12T11:39:03.974Z,69.50
2023-11-12T11:41:37.226Z,70.50
2023-11-12T11:44:42.815Z,69.80
2023-11-12T11:47:16.793Z,69.70
2023-11-12T11:49:46.783Z,66.90
2023-11-12T11:52:27.644Z,68.10
2023-11-12T11:55:03.641Z,68.80
2023-11-12T11:57:31.040Z,68.50
2023-11-12T11:59:59.674Z,67.80
2023-11-12T12:02:26.870Z,68.00
2023-11-12T12:04:58.532Z,67.10
2023-11-12T12:07:27.821Z,67.90
2023-11-12T12:09:59.448Z,67.20
2023-11-12T12:12:27.408Z,67.10
2023-11-12T12:14:55.854Z,66.00
2023-11-12T12:17:23.396Z,66.00
2023-11-12T12:19:56.381Z,65.90
2023-11-12T12:22:30.121Z,67.60
2023-11-12T12:24:59.111Z,67.10
2023-11-12T12:27:26.303Z,65.50
2023-11-12T12:29:54.231Z,65.10
2023-11-12T12:32:21.640Z,64.70
2023-11-12T12:34:59.482Z,64.70
2023-11-12T12:37:28.909Z,64.90
2023-11-12T12:40:12.119Z,65.30
2023-11-12T12:42:39.811Z,64.40
2023-11-12T12:45:16.845Z,65.30
2023-11-12T12:47:45.195Z,67.30
2023-11-12T12:50:34.026Z,65.60
2023-11-12T12:53:19.514Z,67.60
2023-11-12T12:55:47.363Z,67.20
2023-11-12T12:58:15.408Z,66.30
2023-11-12T13:00:46.559Z,66.10
2023-11-12T13:03:36.488Z,66.80
2023-11-12T13:06:09.503Z,65.80
2023-11-12T13:08:36.580Z,66.30
2023-11-12T13:11:04.089Z,66.60
2023-11-12T13:13:31.897Z,66.70
2023-11-12T13:15:58.963Z,66.40
2023-11-12T13:18:26.736Z,66.50
2023-11-12T13:20:53.625Z,67.60
2023-11-12T13:23:20.472Z,66.90
2023-11-12T13:25:52.526Z,67.20
2023-11-12T13:28:19.458Z,67.50
2023-11-12T13:30:48.158Z,67.40
2023-11-12T13:33:15.960Z,67.70
2023-11-12T13:35:43.261Z,67.80
2023-11-12T13:38:11.174Z,68.20
2023-11-12T13:40:41.335Z,68.00
2023-11-12T13:43:08.461Z,68.00
2023-11-12T13:45:39.024Z,68.10
2023-11-12T13:48:07.418Z,68.20
2023-11-12T13:50:36.563Z,68.80
2023-11-12T13:53:10.133Z,68.80
2023-11-12T13:55:38.514Z,69.10
2023-11-12T13:58:07.451Z,69.30
2023-11-12T14:00:34.350Z,69.50
2023-11-12T14:03:02.092Z,69.60
2023-11-12T14:05:29.321Z,69.80
2023-11-12T14:07:57.148Z,70.00
2023-11-12T14:10:24.438Z,70.40
2023-11-12T14:12:51.446Z,70.00
2023-11-12T14:15:19.664Z,70.10
2023-11-12T14:17:47.087Z,70.40
2023-11-12T14:20:23.461Z,70.00
2023-11-12T14:22:52.008Z,70.30
2023-11-12T14:25:22.470Z,70.10
2023-11-12T14:27:50.251Z,69.90
2023-11-12T14:30:19.256Z,70.30
2023-11-12T14:32:46.648Z,70.80
2023-11-12T14:35:13.829Z,70.60
2023-11-12T14:37:40.718Z,70.30
2023-11-12T14:40:11.362Z,70.30
2023-11-12T14:42:39.489Z,70.90
2023-11-12T14:45:14.785Z,71.10
2023-11-12T14:47:48.357Z,71.20
2023-11-12T14:50:17.459Z,70.90
2023-11-12T14:52:44.593Z,70.90
2023-11-12T14:55:22.029Z,70.90
2023-11-12T14:57:54.945Z,71.10
2023-11-12T15:00:28.991Z,71.20
2023-11-12T15:03:01.556Z,71.00
2023-11-12T15:05:31.832Z,72.90
2023-11-12T15:07:58.661Z,71.30
2023-11-12T15:10:25.474Z,71.10
2023-11-12T15:12:52.560Z,71.00
2023-11-12T15:15:20.682Z,71.20
2023-11-12T15:17:48.047Z,71.20
2023-11-12T15:20:14.961Z,71.10
2023-11-12T15:22:43.149Z,71.20
2023-11-12T15:25:12.364Z,71.90
2023-11-12T15:27:39.859Z,71.30
2023-11-12T15:30:07.296Z,71.30
2023-11-12T15:32:34.062Z,71.90
2023-11-12T15:35:00.785Z,71.70
2023-11-12T15:37:28.552Z,71.70
2023-11-12T15:39:56.492Z,72.00
2023-11-12T15:42:24.997Z,72.00
2023-11-12T15:44:51.796Z,72.10
2023-11-12T15:47:20.724Z,72.00
2023-11-12T15:49:47.837Z,72.00
2023-11-12T15:52:14.977Z,72.10
2023-11-12T15:54:48.221Z,72.00
2023-11-12T15:57:16.730Z,72.70
2023-11-12T15:59:43.456Z,72.00
2023-11-12T16:02:10.194Z,72.00
2023-11-12T16:04:37.217Z,72.10
2023-11-12T16:07:04.315Z,72.20
2023-11-12T16:09:31.592Z,72.20
2023-11-12T16:11:59.103Z,72.60
2023-11-12T16:14:25.945Z,72.10
2023-11-12T16:16:52.733Z,72.20
2023-11-12T16:19:19.541Z,72.00
2023-11-12T16:21:49.640Z,72.20
2023-11-12T16:24:17.057Z,74.00
2023-11-12T16:26:44.432Z,72.40
2023-11-12T16:29:11.512Z,72.60
2023-11-12T16:31:38.281Z,72.40
2023-11-12T16:34:05.131Z,72.70
2023-11-12T16:36:31.965Z,73.00
2023-11-12T16:38:58.747Z,72.80
2023-11-12T16:41:25.857Z,72.60
2023-11-12T16:43:53.953Z,72.60
2023-11-12T16:46:20.777Z,72.80
2023-11-12T16:48:47.651Z,72.70
2023-11-12T16:51:15.731Z,72.50
2023-11-12T16:53:43.596Z,71.90
2023-11-12T16:56:11.992Z,72.00
2023-11-12T16:58:41.041Z,73.70
2023-11-12T17:01:08.331Z,72.20
2023-11-12T17:03:35.181Z,72.30
2023-11-12T17:06:02.407Z,72.90
2023-11-12T17:08:30.276Z,72.40
2023-11-12T17:10:57.069Z,72.60
2023-11-12T17:13:23.962Z,72.60
2023-11-12T17:15:50.962Z,72.60
2023-11-12T17:18:17.877Z,72.70
2023-11-12T17:20:44.725Z,72.70
2023-11-12T17:23:11.544Z,72.60
2023-11-12T17:25:38.375Z,72.40
2023-11-12T17:28:05.266Z,72.20
2023-11-12T17:30:34.354Z,72.20
2023-11-12T17:33:01.133Z,72.10
2023-11-12T17:35:28.019Z,72.30
2023-11-12T17:37:55.077Z,72.20
2023-11-12T17:40:21.871Z,72.20
2023-11-12T17:42:49.341Z,72.10
2023-11-12T17:45:16.762Z,72.10
2023-11-12T17:47:43.591Z,72.10
2023-11-12T17:50:11.342Z,72.10
2023-11-12T17:52:39.820Z,72.60
2023-11-12T17:55:07.285Z,73.70
2023-11-12T17:57:35.832Z,72.20
2023-11-12T18:00:02.716Z,73.10
2023-11-12T18:02:40.860Z,72.20
2023-11-12T18:05:08.132Z,73.90
2023-11-12T18:07:35.393Z,72.50
2023-11-12T18:10:03.472Z,72.10
2023-11-12T18:12:30.359Z,72.20
2023-11-12T18:15:00.613Z,72.50
2023-11-12T18:17:27.479Z,73.90
2023-11-12T18:19:55.281Z,73.40
2023-11-12T18:22:26.889Z,73.50
2023-11-12T18:24:53.972Z,74.00
2023-11-12T18:27:21.219Z,72.80
2023-11-12T18:29:48.395Z,73.20
2023-11-12T18:32:15.175Z,72.80
2023-11-12T18:34:48.400Z,72.60
2023-11-12T18:37:15.661Z,73.80
2023-11-12T18:39:42.564Z,73.50
2023-11-12T18:42:09.671Z,73.00
2023-11-12T18:44:36.893Z,73.10
2023-11-12T18:47:06.774Z,73.30
2023-11-12T18:49:33.790Z,73.60
2023-11-12T18:52:04.146Z,73.10
2023-11-12T18:54:31.632Z,73.00
2023-11-12T18:56:58.433Z,73.10
2023-11-12T18:59:25.292Z,73.20
2023-11-12T19:01:52.436Z,73.40
2023-11-12T19:04:19.341Z,73.50
2023-11-12T19:06:49.929Z,73.60
2023-11-12T19:09:17.177Z,73.60
2023-11-12T19:11:43.993Z,73.70
2023-11-12T19:14:11.505Z,73.70
2023-11-12T19:16:39.157Z,73.80
2023-11-12T19:19:07.027Z,73.90
2023-11-12T19:21:37.185Z,73.50
2023-11-12T19:24:07.717Z,73.50
2023-11-12T19:26:34.469Z,73.80
2023-11-12T19:29:03.719Z,73.70
2023-11-12T19:31:33.705Z,73.80
2023-11-12T19:34:01.210Z,73.70
2023-11-12T19:36:27.984Z,73.70
2023-11-12T19:38:54.794Z,74.00
2023-11-12T19:41:23.121Z,74.10
2023-11-12T19:43:49.921Z,74.10
2023-11-12T19:46:16.899Z,74.30
2023-11-12T19:48:43.720Z,74.20
2023-11-12T19:51:10.530Z,74.20
2023-11-12T19:53:41.248Z,74.20
2023-11-12T19:56:08.240Z,74.50
2023-11-12T19:58:35.074Z,74.70
2023-11-12T20:01:02.007Z,74.40
2023-11-12T20:03:28.894Z,74.20
2023-11-12T20:05:55.650Z,74.20
2023-11-12T20:08:23.386Z,74.40
2023-11-12T20:10:50.496Z,74.50
2023-11-12T20:13:17.449Z,74.30
2023-11-12T20:15:44.409Z,74.40
2023-11-12T20:18:11.258Z,74.40
2023-11-12T20:20:43.063Z,74.40
2023-11-12T20:23:11.504Z,74.30
2023-11-12T20:25:38.629Z,74.30
2023-11-12T20:28:12.147Z,74.40
2023-11-12T20:30:40.991Z,75.20
2023-11-12T20:33:07.956Z,74.50
2023-11-12T20:35:34.782Z,74.50
2023-11-12T20:38:01.555Z,74.50
2023-11-12T20:40:28.308Z,74.50
2023-11-12T20:42:56.811Z,74.30
2023-11-12T20:45:23.734Z,74.60
2023-11-12T20:47:53.677Z,75.30
2023-11-12T20:50:21.104Z,73.90
2023-11-12T20:52:47.971Z,74.40
2023-11-12T20:55:17.891Z,74.60
2023-11-12T20:57:48.127Z,74.10
2023-11-12T21:00:19.870Z,74.70
2023-11-12T21:02:49.012Z,74.70
2023-11-12T21:05:17.289Z,74.60
2023-11-12T21:07:44.013Z,75.30
2023-11-12T21:10:10.924Z,74.30
2023-11-12T21:12:37.812Z,74.40
2023-11-12T21:15:07.284Z,74.40
2023-11-12T21:17:34.107Z,74.70
2023-11-12T21:20:01.365Z,74.40
2023-11-12T21:22:28.537Z,74.70
2023-11-12T21:24:55.514Z,74.80
2023-11-12T21:27:22.538Z,74.60
2023-11-12T21:29:49.391Z,74.80
2023-11-12T21:32:16.205Z,74.50
2023-11-12T21:34:42.991Z,74.40
2023-11-12T21:37:09.750Z,74.60
2023-11-12T21:39:36.880Z,74.50
2023-11-12T21:42:08.125Z,74.80
2023-11-12T21:44:36.361Z,75.20
2023-11-12T21:47:04.044Z,74.90
2023-11-12T21:49:31.076Z,75.00
2023-11-12T21:51:59.105Z,75.10
2023-11-12T21:54:26.544Z,76.10
2023-11-12T21:56:54.561Z,75.70
2023-11-12T21:59:22.292Z,76.00
2023-11-12T22:01:50.575Z,75.80
2023-11-12T22:04:22.474Z,75.90
2023-11-12T22:06:49.561Z,75.50
2023-11-12T22:09:16.371Z,75.40
2023-11-12T22:11:47.739Z,75.20
2023-11-12T22:14:14.798Z,75.70
2023-11-12T22:16:44.971Z,75.50
2023-11-12T22:19:13.052Z,75.40
2023-11-12T22:21:41.228Z,76.00
2023-11-12T22:24:08.695Z,75.70
2023-11-12T22:26:37.330Z,75.50
2023-11-12T22:29:04.129Z,75.30
2023-11-12T22:31:31.229Z,75.20
2023-11-12T22:33:58.187Z,75.10
2023-11-12T22:36:25.214Z,75.40
2023-11-12T22:38:52.977Z,75.30
2023-11-12T22:41:19.717Z,76.00
2023-11-12T22:43:46.716Z,74.70
2023-11-12T22:46:13.783Z,75.10
2023-11-12T22:48:41.973Z,74.80
2023-11-12T22:51:10.169Z,74.70
2023-11-12T22:53:38.272Z,74.70
2023-11-12T22:56:05.415Z,75.00
2023-11-12T22:58:32.230Z,75.30
2023-11-12T23:01:05.174Z,75.00
2023-11-12T23:03:35.233Z,74.40
2023-11-12T23:06:02.172Z,74.90
2023-11-12T23:08:29.267Z,74.90
2023-11-12T23:10:56.717Z,74.70
2023-11-12T23:13:23.675Z,74.80
2023-11-12T23:15:51.230Z,74.80
2023-11-12T23:18:20.217Z,74.90
2023-11-12T23:20:52.464Z,74.70
2023-11-12T23:23:26.096Z,74.80
2023-11-12T23:25:53.782Z,75.10
2023-11-12T23:28:20.715Z,75.30
2023-11-12T23:30:47.639Z,75.10
2023-11-12T23:33:15.115Z,74.80
2023-11-12T23:35:41.903Z,74.80
2023-11-12T23:38:08.687Z,74.70
2023-11-12T23:40:36.065Z,74.50
2023-11-12T23:43:02.858Z,74.60
2023-11-12T23:45:29.575Z,74.50
2023-11-12T23:47:56.452Z,74.60
2023-11-12T23:50:25.754Z,74.70
2023-11-12T23:52:52.731Z,74.70
2023-11-12T23:55:19.561Z,74.90
2023-11-12T23:57:47.130Z,75.10
